Berwick, Maine
Current Conditions -  °F | °C
As of 3:51 AM on Sunday 26 Oct 2014 (Local Time) from KDAW Reporting Station
Clear Clear  
Wind Chill: 45°   Ceiling: Unl
Heat Index: 47°   Visibility: 10mi
Dew Point: 42°   Wind: 5mph
Humidity: 83%   Direction: 330°NNW
Pressure: 29.41"   Gusts: NA
Location:  43.27°N, 70.86°W
Report Text: KDAW 260751Z AUTO 33004KT 10SM CLR 08/06 A2941 RMK AO2 SLP955 T00830056
Loading
Personal Weather Stations






























Interactive Weather Map
Tropical Storm Tracking
New forecast layout! Learn more

10-Day Weather Forecast

Advertisements
Track Severe Weather on mobile